Time;durP1;ratioP1;P1;durP2;ratioP2;P2;SDS_P1;SDS_P2;PMS_P1;PMS_P2;Temp;Humidity;BMP_temperature;BMP_pressure;BME280_temperature;BME280_humidity;BME280_pressure;Samples;Min_cycle;Max_cycle;Signal;HPM_P1;HPM_P2
2022/05/29 00:00:51;;;;;;;0.10;0.10;;;;;;;12.41;58.90;101977.88;5053335;28;20082;-84
2022/05/29 00:03:18;;;;;;;0.10;0.10;;;;;;;12.38;60.04;101977.94;5054176;28;20064;-84
2022/05/29 00:05:46;;;;;;;0.00;0.00;;;;;;;12.35;60.21;101967.31;5054410;28;20033;-85
2022/05/29 00:08:23;;;;;;;0.10;0.10;;;;;;;12.37;58.88;101965.53;5057783;28;20486;-83
2022/05/29 00:10:49;;;;;;;0.00;0.00;;;;;;;12.35;58.66;101962.00;5057824;28;20025;-82
2022/05/29 00:13:15;;;;;;;0.00;0.00;;;;;;;12.34;58.87;101960.25;5058152;28;20122;-82
2022/05/29 00:15:42;;;;;;;0.08;0.08;;;;;;;12.31;59.04;101963.78;5054935;28;20231;-83
2022/05/29 00:18:09;;;;;;;0.00;0.00;;;;;;;12.30;58.66;101960.25;5052270;28;20036;-84
2022/05/29 00:20:39;;;;;;;0.10;0.10;;;;;;;12.27;58.79;101954.09;5052162;28;20096;-82
2022/05/29 00:23:05;;;;;;;0.00;0.00;;;;;;;12.27;59.13;101955.00;5049420;28;20418;-82
2022/05/29 00:25:31;;;;;;;0.10;0.10;;;;;;;12.22;58.78;101962.09;5049297;28;20525;-82
2022/05/29 00:27:58;;;;;;;0.10;0.10;;;;;;;12.17;59.05;101953.28;5049214;28;20043;-82
2022/05/29 00:30:24;;;;;;;0.00;0.00;;;;;;;12.16;59.36;101945.34;5049614;28;20075;-84
2022/05/29 00:32:50;;;;;;;0.10;0.10;;;;;;;12.15;59.70;101944.47;5048939;28;20029;-84
2022/05/29 00:35:17;;;;;;;0.10;0.10;;;;;;;12.16;59.15;101945.34;5049747;28;20097;-82
2022/05/29 00:37:43;;;;;;;0.10;0.10;;;;;;;12.13;59.08;101946.25;5049825;28;20028;-82
2022/05/29 00:43:00;;;;;;;0.10;0.10;;;;;;;12.09;59.13;101944.53;5125362;27;20388;-83
2022/05/29 00:45:29;;;;;;;0.10;0.10;;;;;;;12.10;59.67;101947.16;5110932;28;20058;-82
2022/05/29 00:47:55;;;;;;;0.00;0.00;;;;;;;12.05;59.69;101938.34;5110216;28;20028;-83
2022/05/29 00:50:22;;;;;;;0.10;0.10;;;;;;;12.03;59.33;101942.78;5111043;28;20485;-83
2022/05/29 00:52:50;;;;;;;0.10;0.10;;;;;;;12.02;59.35;101932.19;5110577;28;20028;-84
2022/05/29 00:55:24;;;;;;;0.10;0.10;;;;;;;12.02;59.30;101934.84;5113632;28;20504;-83
2022/05/29 00:57:58;;;;;;;0.10;0.10;;;;;;;12.03;58.79;101926.00;5113674;28;20478;-84
2022/05/29 01:00:27;;;;;;;0.10;0.10;;;;;;;12.01;59.66;101930.41;5114183;28;20500;-84
2022/05/29 01:02:56;;;;;;;0.10;0.10;;;;;;;11.95;59.28;101931.31;5113025;28;20016;-85
2022/05/29 01:05:24;;;;;;;0.10;0.10;;;;;;;11.95;59.29;101926.91;5113370;28;20401;-85
2022/05/29 01:08:03;;;;;;;0.00;0.00;;;;;;;12.00;59.45;101923.34;5113570;28;20052;-85
2022/05/29 01:13:41;;;;;;;0.00;0.00;;;;;;;12.00;59.22;101918.94;5010890;28;20614;-84
2022/05/29 01:22:03;;;;;;;0.08;0.08;;;;;;;12.00;58.91;101903.00;5073608;28;20869;-84
2022/05/29 01:27:47;;;;;;;0.08;0.08;;;;;;;12.07;59.13;101902.00;5094480;28;20849;-84
2022/05/29 01:30:24;;;;;;;0.10;0.10;;;;;;;12.00;59.26;101894.13;5094100;28;20414;-85
2022/05/29 01:36:03;;;;;;;0.10;0.10;;;;;;;12.14;59.43;101894.88;5127846;22;1198817;-77
2022/05/29 01:41:16;;;;;;;0.00;0.00;;;;;;;12.15;59.27;101896.66;5097480;27;1883029;-77
2022/05/29 01:43:58;;;;;;;0.00;0.00;;;;;;;12.15;59.24;101880.72;5136429;28;20118;-77
2022/05/29 01:46:31;;;;;;;0.13;0.13;;;;;;;12.20;59.06;101889.53;5125953;28;20031;-78
2022/05/29 01:51:45;;;;;;;0.10;0.10;;;;;;;12.20;59.12;101881.53;5067980;28;20386;-76
2022/05/29 01:54:26;;;;;;;0.20;0.20;;;;;;;12.26;59.39;101878.81;5068300;28;20029;-77
2022/05/29 01:56:58;;;;;;;0.00;0.00;;;;;;;12.26;59.20;101878.81;5068486;28;20044;-76
2022/05/29 02:02:09;;;;;;;0.20;0.20;;;;;;;12.34;59.69;101875.22;5114696;27;20144;-77
2022/05/29 02:04:43;;;;;;;0.17;0.17;;;;;;;12.37;59.72;101875.16;5115208;28;20059;-77
2022/05/29 02:10:08;;;;;;;0.10;0.10;;;;;;;12.48;59.20;101870.59;5115482;28;20032;-77
2022/05/29 02:12:39;;;;;;;0.10;0.10;;;;;;;12.56;58.70;101875.81;5115328;28;20038;-78
2022/05/29 02:15:10;;;;;;;0.10;0.10;;;;;;;12.61;59.32;101868.66;5114805;28;20028;-78
2022/05/29 02:17:42;;;;;;;0.00;0.00;;;;;;;12.62;59.11;101865.13;5114281;28;20024;-78
2022/05/29 02:20:23;;;;;;;0.10;0.10;;;;;;;12.64;58.85;101873.09;5114959;28;20028;-78
2022/05/29 02:22:56;;;;;;;0.10;0.10;;;;;;;12.61;59.03;101863.34;5114724;28;20087;-78
2022/05/29 02:25:26;;;;;;;0.05;0.05;;;;;;;12.62;59.61;101867.78;5114500;28;20032;-77
2022/05/29 02:27:58;;;;;;;0.00;0.00;;;;;;;12.70;59.28;101857.06;5114345;28;20028;-77
2022/05/29 02:30:31;;;;;;;0.10;0.10;;;;;;;12.75;58.89;101855.22;5114427;28;20510;-77
2022/05/29 02:36:19;;;;;;;0.05;0.05;;;;;;;12.85;59.64;101856.00;5115437;27;20891;-78
2022/05/29 02:44:42;;;;;;;0.00;0.00;;;;;;;13.03;59.03;101844.22;5115464;27;20372;-77
2022/05/29 02:50:22;;;;;;;0.00;0.00;;;;;;;13.07;59.20;101840.59;5034931;28;20381;-78
2022/05/29 02:52:53;;;;;;;0.25;0.25;;;;;;;13.07;58.84;101846.81;5034296;28;20025;-78
2022/05/29 02:55:22;;;;;;;0.10;0.10;;;;;;;13.06;59.19;101833.50;5035147;28;20036;-77
2022/05/29 02:57:53;;;;;;;0.00;0.00;;;;;;;13.12;59.15;101844.06;5035344;28;20053;-78
2022/05/29 03:00:20;;;;;;;0.10;0.10;;;;;;;13.10;59.18;101835.25;5035231;28;20620;-78
2022/05/29 03:11:42;;;;;;;0.05;0.05;;;;;;;13.23;59.26;101836.81;5067622;28;20414;-76
2022/05/29 03:19:49;;;;;;;0.05;0.05;;;;;;;13.23;58.77;101838.59;5150001;27;20389;-76
2022/05/29 03:25:08;;;;;;;0.10;0.10;;;;;;;13.37;58.48;101849.00;5148896;27;20396;-77
2022/05/29 03:27:51;;;;;;;0.00;0.00;;;;;;;13.35;59.07;101846.38;5116014;28;20031;-78
2022/05/29 03:32:59;;;;;;;0.05;0.05;;;;;;;13.26;59.76;101844.75;5115025;27;20335;-77
2022/05/29 03:38:03;;;;;;;0.00;0.00;;;;;;;13.18;59.59;101843.97;5074379;28;20138;-77
2022/05/29 03:40:32;;;;;;;0.00;0.00;;;;;;;13.16;60.82;101842.25;5074121;28;20051;-77
2022/05/29 03:42:58;;;;;;;0.00;0.00;;;;;;;13.10;60.96;101840.56;5073135;28;20048;-77
2022/05/29 03:45:25;;;;;;;0.10;0.10;;;;;;;13.02;61.72;101839.78;5073312;28;20025;-77
2022/05/29 03:47:51;;;;;;;0.10;0.10;;;;;;;13.04;61.40;101835.34;5073139;28;20035;-77
2022/05/29 03:50:19;;;;;;;0.52;0.52;;;;;;;13.03;61.27;101838.88;5073005;28;20024;-77
2022/05/29 03:52:47;;;;;;;0.00;0.00;;;;;;;13.01;61.88;101824.72;5073366;28;20028;-77
2022/05/29 03:55:14;;;;;;;0.00;0.00;;;;;;;12.93;63.12;101825.72;5073344;28;20029;-78
2022/05/29 03:57:41;;;;;;;0.00;0.00;;;;;;;12.93;62.60;101828.38;5074004;28;20070;-76
2022/05/29 04:00:11;;;;;;;0.08;0.08;;;;;;;12.98;62.60;101824.78;5073681;28;20095;-77
2022/05/29 04:02:40;;;;;;;0.10;0.10;;;;;;;12.98;63.45;101822.13;5073137;28;20111;-77
2022/05/29 04:05:07;;;;;;;0.03;0.03;;;;;;;13.05;61.82;101823.78;5073543;28;20020;-77
2022/05/29 04:13:06;;;;;;;0.00;0.00;;;;;;;13.03;62.13;101806.97;5072891;28;20420;-77
2022/05/29 04:15:32;;;;;;;0.00;0.00;;;;;;;13.05;62.26;101811.34;5073147;28;20032;-77
2022/05/29 04:17:59;;;;;;;0.00;0.00;;;;;;;13.04;62.02;101816.72;5072526;28;20024;-77
2022/05/29 04:20:25;;;;;;;0.10;0.10;;;;;;;13.05;62.59;101813.16;5072936;28;20045;-77
2022/05/29 04:22:51;;;;;;;0.00;0.00;;;;;;;13.06;62.52;101813.13;5071878;28;20039;-78
2022/05/29 04:25:17;;;;;;;0.00;0.00;;;;;;;13.09;61.91;101810.41;5072206;28;20056;-77
2022/05/29 04:27:43;;;;;;;0.00;0.00;;;;;;;13.10;62.56;101813.97;5072994;28;20107;-77
2022/05/29 04:30:12;;;;;;;0.10;0.10;;;;;;;13.16;61.40;101808.53;5073095;28;20497;-77
2022/05/29 04:33:09;;;;;;;0.10;0.10;;;;;;;13.16;61.88;101802.31;5070695;28;20056;-78
2022/05/29 04:35:29;;;;;;;0.00;0.00;;;;;;;13.17;61.75;101807.66;5071946;28;20214;-78
2022/05/29 04:37:55;;;;;;;0.10;0.10;;;;;;;13.18;62.10;101814.69;5071583;28;20036;-78
2022/05/29 04:40:22;;;;;;;0.00;0.00;;;;;;;13.24;61.72;101806.63;5072560;28;20039;-78
2022/05/29 04:42:49;;;;;;;0.00;0.00;;;;;;;13.29;62.23;101814.53;5071518;28;20399;-78
2022/05/29 04:45:15;;;;;;;0.00;0.00;;;;;;;13.34;61.84;101807.34;5072038;28;20025;-78
2022/05/29 04:47:41;;;;;;;0.10;0.10;;;;;;;13.38;62.22;101808.22;5069769;28;20033;-78
2022/05/29 04:50:08;;;;;;;0.20;0.20;;;;;;;13.41;62.43;101802.88;5060790;28;20144;-77
2022/05/29 04:52:35;;;;;;;0.00;0.00;;;;;;;13.45;62.07;101804.56;5061221;28;20041;-78
2022/05/29 04:55:02;;;;;;;0.00;0.00;;;;;;;13.47;62.04;101792.13;5057699;28;20032;-77
2022/05/29 04:57:28;;;;;;;0.00;0.00;;;;;;;13.43;62.13;101801.03;5055851;28;20017;-77
2022/05/29 04:59:55;;;;;;;0.00;0.00;;;;;;;13.47;62.08;101799.22;5057774;28;20055;-77
2022/05/29 05:02:21;;;;;;;0.00;0.00;;;;;;;13.51;61.62;101792.94;5057342;28;20029;-77
2022/05/29 05:04:47;;;;;;;0.10;0.10;;;;;;;13.56;61.12;101786.63;5060510;28;20115;-77
2022/05/29 05:07:14;;;;;;;0.10;0.10;;;;;;;13.59;61.20;101786.59;5060992;28;20423;-78
2022/05/29 05:09:40;;;;;;;0.00;0.00;;;;;;;13.63;61.17;101786.50;5060936;28;20029;-77
2022/05/29 05:12:07;;;;;;;0.00;0.00;;;;;;;13.68;60.62;101795.28;5059700;28;20099;-77
2022/05/29 05:14:35;;;;;;;0.00;0.00;;;;;;;13.72;60.31;101795.22;5057767;28;20545;-77
2022/05/29 05:17:02;;;;;;;0.00;0.00;;;;;;;13.73;60.36;101793.44;5058348;28;20025;-77
2022/05/29 05:19:28;;;;;;;0.10;0.10;;;;;;;13.67;60.66;101790.88;5056603;28;20048;-78
2022/05/29 05:21:54;;;;;;;0.00;0.00;;;;;;;13.74;60.74;101787.19;5056043;28;20434;-77
2022/05/29 05:24:21;;;;;;;0.20;0.20;;;;;;;13.78;60.26;101788.88;5056783;28;20029;-77
2022/05/29 05:26:48;;;;;;;0.00;0.00;;;;;;;13.74;59.58;101785.44;5055685;28;20051;-77
2022/05/29 05:29:14;;;;;;;0.00;0.00;;;;;;;13.77;59.91;101787.16;5056471;28;20037;-77
2022/05/29 05:31:41;;;;;;;0.10;0.10;;;;;;;13.78;60.32;101796.88;5055426;28;20503;-78
2022/05/29 05:34:07;;;;;;;0.00;0.00;;;;;;;13.68;59.66;101789.97;5057149;28;20151;-78
2022/05/29 05:36:33;;;;;;;0.00;0.00;;;;;;;13.75;59.59;101792.50;5058680;28;20021;-77
2022/05/29 05:38:59;;;;;;;0.00;0.00;;;;;;;13.73;59.88;101789.00;5058889;28;20029;-77
2022/05/29 05:41:25;;;;;;;0.10;0.10;;;;;;;13.61;60.07;101791.88;5055175;28;20040;-77
2022/05/29 05:43:51;;;;;;;0.10;0.10;;;;;;;13.66;60.09;101786.47;5054966;28;20028;-77
2022/05/29 05:46:18;;;;;;;0.73;0.73;;;;;;;13.65;60.81;101787.38;5054672;28;20033;-77
2022/05/29 05:48:45;;;;;;;0.00;0.00;;;;;;;13.67;60.51;101781.13;5054690;28;20029;-78
2022/05/29 05:51:12;;;;;;;0.05;0.05;;;;;;;13.73;60.51;101780.09;5054428;28;20108;-78
2022/05/29 05:53:40;;;;;;;0.00;0.00;;;;;;;13.79;60.75;101788.00;5054832;28;20033;-78
2022/05/29 05:56:10;;;;;;;0.00;0.00;;;;;;;13.86;61.41;101778.97;5054512;28;20028;-78
2022/05/29 05:58:37;;;;;;;0.00;0.00;;;;;;;13.93;61.42;101774.41;5054679;28;20037;-77
2022/05/29 06:01:11;;;;;;;0.60;0.57;;;;;;;13.98;60.19;101777.00;5053131;28;20272;-77
2022/05/29 06:03:37;;;;;;;0.70;0.70;;;;;;;13.99;60.05;101776.09;5054712;28;20036;-77
2022/05/29 06:06:04;;;;;;;0.75;0.75;;;;;;;14.03;59.98;101775.09;5054372;28;20021;-77
2022/05/29 06:08:31;;;;;;;0.00;0.00;;;;;;;14.07;59.85;101771.50;5057286;28;20045;-77
2022/05/29 06:10:58;;;;;;;0.00;0.00;;;;;;;14.08;59.28;101775.91;5058285;28;20090;-77
2022/05/29 06:13:24;;;;;;;0.00;0.00;;;;;;;14.03;59.07;101776.00;5059835;28;20112;-78
2022/05/29 06:15:51;;;;;;;0.00;0.00;;;;;;;13.94;59.00;101772.63;5068863;28;20085;-77
2022/05/29 06:18:18;;;;;;;0.22;0.22;;;;;;;13.95;59.24;101774.41;5059739;28;20527;-78
2022/05/29 06:20:45;;;;;;;0.08;0.08;;;;;;;13.91;59.26;101774.44;5055526;28;20047;-78
2022/05/29 06:23:13;;;;;;;0.00;0.00;;;;;;;13.89;59.53;101776.28;5054704;28;20538;-78
2022/05/29 06:25:40;;;;;;;0.00;0.00;;;;;;;13.90;59.64;101772.69;5053385;28;20111;-77
2022/05/29 06:28:08;;;;;;;0.00;0.00;;;;;;;13.89;59.29;101778.94;5054875;28;20029;-78
2022/05/29 06:30:34;;;;;;;0.10;0.10;;;;;;;13.89;59.48;101778.94;5054226;28;20221;-77
2022/05/29 06:33:01;;;;;;;0.08;0.08;;;;;;;13.97;59.11;101776.13;5058031;28;20040;-78
2022/05/29 06:35:27;;;;;;;0.00;0.00;;;;;;;13.98;58.88;101771.66;5059447;28;20021;-78
2022/05/29 06:37:54;;;;;;;0.00;0.00;;;;;;;14.04;59.06;101774.22;5059308;28;20051;-78
2022/05/29 06:40:21;;;;;;;0.10;0.10;;;;;;;14.13;59.44;101774.03;5058607;28;20056;-78
2022/05/29 06:42:47;;;;;;;0.00;0.00;;;;;;;14.24;59.12;101769.38;5059305;28;20028;-78
2022/05/29 06:45:13;;;;;;;0.00;0.00;;;;;;;14.31;59.40;101763.91;5060838;28;20082;-78
2022/05/29 06:47:39;;;;;;;0.00;0.00;;;;;;;14.36;59.27;101762.88;5059767;28;20025;-78
2022/05/29 06:50:07;;;;;;;0.03;0.03;;;;;;;14.47;59.25;101775.13;5059238;28;20621;-78
2022/05/29 06:52:33;;;;;;;0.10;0.10;;;;;;;14.45;59.47;101769.81;5058459;28;20111;-78
2022/05/29 06:55:00;;;;;;;0.22;0.22;;;;;;;14.48;59.53;101775.09;5058885;28;20032;-78
2022/05/29 06:57:58;;;;;;;0.00;0.00;;;;;;;14.47;59.36;101778.66;5059050;28;20051;-78
2022/05/29 07:08:36;;;;;;;0.00;0.00;;;;;;;14.41;60.35;101776.13;5057471;28;20423;-78
2022/05/29 07:11:07;;;;;;;0.00;0.00;;;;;;;14.43;60.65;101778.75;5055633;28;20028;-78
2022/05/29 07:13:34;;;;;;;0.40;0.40;;;;;;;14.40;60.91;101769.03;5056599;28;20033;-78
2022/05/29 07:16:01;;;;;;;0.00;0.00;;;;;;;14.47;60.51;101765.34;5056559;28;20501;-78
2022/05/29 07:18:29;;;;;;;0.10;0.10;;;;;;;14.53;61.05;101767.00;5057641;28;20025;-77
2022/05/29 07:20:58;;;;;;;0.00;0.00;;;;;;;14.55;59.78;101758.06;5057431;28;20435;-77
2022/05/29 07:23:24;;;;;;;0.00;0.00;;;;;;;14.57;59.94;101761.53;5058291;28;20274;-77
2022/05/29 07:25:51;;;;;;;0.00;0.00;;;;;;;14.66;59.27;101759.63;5057562;28;20040;-78
2022/05/29 07:28:17;;;;;;;0.00;0.00;;;;;;;14.72;59.82;101765.69;5057498;28;20021;-78
2022/05/29 07:30:46;;;;;;;0.00;0.00;;;;;;;14.85;58.82;101760.97;5058042;28;20703;-77
2022/05/29 07:33:12;;;;;;;0.00;0.00;;;;;;;14.80;55.37;101762.84;5058067;28;20039;-78
2022/05/29 07:38:20;;;;;;;0.00;0.00;;;;;;;14.96;55.95;101762.50;4994223;28;20039;-86
2022/05/29 07:40:46;;;;;;;0.00;0.00;;;;;;;15.11;56.22;101756.78;4996401;28;20034;-85
2022/05/29 07:43:22;;;;;;;0.00;0.00;;;;;;;15.30;53.65;101749.22;4996877;28;20043;-85
2022/05/29 07:45:52;;;;;;;0.10;0.10;;;;;;;15.52;54.52;101748.66;4997187;28;20042;-85
2022/05/29 07:48:19;;;;;;;0.10;0.10;;;;;;;15.75;54.73;101753.41;4997105;28;20023;-85
2022/05/29 07:50:45;;;;;;;0.08;0.08;;;;;;;15.93;54.22;101745.81;4996998;28;20037;-86
2022/05/29 07:53:12;;;;;;;0.00;0.00;;;;;;;16.09;53.85;101740.91;4996585;28;20090;-86
2022/05/29 07:55:39;;;;;;;0.00;0.00;;;;;;;16.23;53.28;101740.50;4995616;28;20079;-86
2022/05/29 07:58:06;;;;;;;0.10;0.10;;;;;;;16.32;51.64;101748.25;4994639;28;20027;-86
2022/05/29 08:00:34;;;;;;;0.00;0.00;;;;;;;16.48;52.74;101741.50;4996664;28;20030;-86
2022/05/29 08:03:01;;;;;;;0.00;0.00;;;;;;;16.47;51.68;101745.13;4996386;28;20095;-87
2022/05/29 08:05:29;;;;;;;0.00;0.00;;;;;;;16.59;51.84;101741.19;4997151;28;20019;-86
2022/05/29 08:07:56;;;;;;;0.00;0.00;;;;;;;16.55;50.82;101744.00;4996617;28;20022;-86
2022/05/29 08:10:23;;;;;;;0.00;0.00;;;;;;;16.55;52.29;101744.00;4996953;28;20031;-86
2022/05/29 08:12:49;;;;;;;0.00;0.00;;;;;;;16.50;52.19;101746.84;4994714;28;20066;-87
2022/05/29 08:15:16;;;;;;;0.00;0.00;;;;;;;16.48;52.21;101746.84;4992987;28;20030;-87
2022/05/29 08:17:42;;;;;;;0.10;0.10;;;;;;;16.28;52.23;101758.16;4992742;28;20035;-86
2022/05/29 08:20:11;;;;;;;0.20;0.20;;;;;;;16.16;52.86;101754.06;4989888;28;20098;-87
2022/05/29 08:22:37;;;;;;;0.10;0.10;;;;;;;16.07;53.36;101745.44;4990118;28;20078;-86
2022/05/29 08:30:37;;;;;;;0.00;0.00;;;;;;;15.64;55.83;101758.16;4995998;28;20077;-87
2022/05/29 08:33:05;;;;;;;0.00;0.00;;;;;;;15.64;55.85;101755.47;4996378;28;20038;-87
2022/05/29 08:35:32;;;;;;;0.00;0.00;;;;;;;15.64;54.89;101758.16;4996719;28;20026;-87
2022/05/29 08:38:00;;;;;;;0.00;0.00;;;;;;;15.74;55.04;101765.00;4997121;28;20038;-87
2022/05/29 08:40:28;;;;;;;0.00;0.00;;;;;;;15.66;56.09;101758.97;4998072;28;20038;-87
2022/05/29 08:42:55;;;;;;;0.00;0.00;;;;;;;15.51;56.85;101760.25;4994852;28;20035;-86
2022/05/29 08:45:22;;;;;;;0.00;0.00;;;;;;;15.30;56.39;101761.69;4998183;28;20018;-87
2022/05/29 08:47:50;;;;;;;0.00;0.00;;;;;;;15.24;56.85;101760.06;5000379;28;20022;-87
2022/05/29 08:50:27;;;;;;;0.00;0.00;;;;;;;15.24;57.26;101761.81;4996312;28;20058;-87
2022/05/29 08:53:21;;;;;;;0.00;0.00;;;;;;;15.30;56.89;101756.34;4996689;28;20082;-87
2022/05/29 08:55:58;;;;;;;0.10;0.10;;;;;;;15.43;57.02;101747.09;4996601;28;20104;-86
2022/05/29 09:01:18;;;;;;;0.00;0.00;;;;;;;15.67;56.01;101742.88;5093611;27;21053;-83
2022/05/29 09:04:03;;;;;;;0.10;0.10;;;;;;;15.88;55.84;101742.41;5094176;28;20032;-83
2022/05/29 09:09:45;;;;;;;0.08;0.08;;;;;;;16.11;55.00;101733.72;5114627;27;20113;-83
2022/05/29 09:12:19;;;;;;;0.00;0.00;;;;;;;16.28;54.81;101731.41;5113830;28;20028;-85
2022/05/29 09:14:59;;;;;;;0.00;0.00;;;;;;;16.47;54.53;101730.88;5115525;28;20020;-85
2022/05/29 09:20:27;;;;;;;0.03;0.03;;;;;;;16.72;53.17;101720.25;5036874;28;20437;-83
2022/05/29 09:22:57;;;;;;;0.00;0.00;;;;;;;16.62;51.56;101734.88;5035290;28;20034;-84
2022/05/29 09:25:43;;;;;;;0.00;0.00;;;;;;;16.66;51.70;101739.22;5041752;28;20037;-83
2022/05/29 09:28:16;;;;;;;0.05;0.05;;;;;;;16.37;52.14;101734.75;5041200;28;20076;-84
2022/05/29 09:30:42;;;;;;;0.00;0.00;;;;;;;16.18;52.11;101736.16;5034693;28;20518;-85
2022/05/29 09:33:24;;;;;;;0.00;0.00;;;;;;;16.14;52.57;101730.97;5034239;28;20025;-85
2022/05/29 09:36:13;;;;;;;0.00;0.00;;;;;;;16.01;52.34;101730.41;5034788;28;20033;-88
2022/05/29 09:38:49;;;;;;;0.03;0.03;;;;;;;16.10;53.69;101726.59;5033686;28;20395;-84
2022/05/29 09:41:41;;;;;;;0.00;0.00;;;;;;;16.30;53.48;101723.38;5033317;28;20037;-85
2022/05/29 09:46:50;;;;;;;0.00;0.00;;;;;;;16.65;52.28;101718.72;5118804;27;1202774;-84
2022/05/29 09:52:14;;;;;;;0.00;0.00;;;;;;;16.93;50.77;101717.88;5114367;27;20384;-84
2022/05/29 09:54:49;;;;;;;0.00;0.00;;;;;;;16.93;48.23;101717.88;5115206;28;20042;-85
2022/05/29 09:57:27;;;;;;;0.00;0.00;;;;;;;17.14;48.35;101711.78;5115122;28;20038;-84
2022/05/29 10:00:08;;;;;;;0.00;0.00;;;;;;;17.36;49.56;101711.06;5116182;28;20416;-84
2022/05/29 10:02:40;;;;;;;0.00;0.00;;;;;;;17.46;48.61;101707.13;5115503;28;20027;-83
2022/05/29 10:05:23;;;;;;;0.10;0.10;;;;;;;17.69;48.39;101710.78;5115871;28;20058;-84
2022/05/29 10:07:51;;;;;;;0.25;0.25;;;;;;;17.76;48.45;101715.00;5116393;28;20493;-83
2022/05/29 10:10:34;;;;;;;0.00;0.00;;;;;;;17.59;49.02;101733.50;5117252;28;20448;-85
2022/05/29 10:13:02;;;;;;;0.10;0.10;;;;;;;16.97;52.42;101743.59;5116207;28;20036;-82
2022/05/29 10:20:50;;;;;;;0.10;0.10;;;;;;;15.45;57.36;101755.06;5075926;28;20375;-83
2022/05/29 10:23:35;;;;;;;0.00;0.00;;;;;;;15.13;59.50;101751.44;5074858;28;20032;-83
2022/05/29 10:26:08;;;;;;;0.10;0.10;;;;;;;14.90;61.82;101750.16;5074870;28;20033;-83
2022/05/29 10:28:40;;;;;;;0.00;0.00;;;;;;;14.81;60.02;101748.59;5075670;28;20139;-81
2022/05/29 10:31:09;;;;;;;0.00;0.00;;;;;;;14.65;60.08;101747.19;5074142;28;20036;-81
2022/05/29 10:33:35;;;;;;;0.00;0.00;;;;;;;14.50;61.48;101748.38;5074879;28;20525;-81
2022/05/29 10:36:19;;;;;;;0.00;0.00;;;;;;;14.46;61.63;101744.03;5073192;28;20036;-83
2022/05/29 10:38:46;;;;;;;0.00;0.00;;;;;;;14.38;63.75;101744.19;5073758;28;20017;-84
2022/05/29 10:41:30;;;;;;;0.00;0.00;;;;;;;14.53;63.31;101738.53;5072580;28;20167;-84
2022/05/29 10:43:56;;;;;;;0.00;0.00;;;;;;;14.73;61.90;101739.91;5072644;28;20029;-82
2022/05/29 10:46:39;;;;;;;0.10;0.10;;;;;;;14.90;61.79;101738.63;5073040;28;20028;-83
2022/05/29 10:49:30;;;;;;;0.00;0.00;;;;;;;15.04;62.75;101745.41;5073388;28;20024;-83
2022/05/29 10:52:16;;;;;;;0.10;0.10;;;;;;;15.03;62.71;101740.97;5072045;28;20021;-84
2022/05/29 10:55:22;;;;;;;0.00;0.00;;;;;;;15.08;61.87;101746.19;5073051;28;20048;-83
2022/05/29 10:58:26;;;;;;;0.00;0.00;;;;;;;15.02;62.17;101747.22;5073400;28;20427;-84
2022/05/29 11:07:23;;;;;;;0.00;0.00;;;;;;;14.84;62.55;101740.53;5071269;27;1210045;-81
2022/05/29 11:10:11;;;;;;;0.10;0.10;;;;;;;14.93;62.24;101735.88;5093565;28;20440;-82
2022/05/29 11:13:03;;;;;;;1.40;1.30;;;;;;;14.96;62.54;101734.00;5092992;28;20529;-83
2022/05/29 11:15:41;;;;;;;0.10;0.10;;;;;;;14.96;62.86;101731.34;5093143;28;20105;-82
2022/05/29 11:18:43;;;;;;;0.10;0.10;;;;;;;15.05;62.72;101730.25;5091366;28;20028;-82
2022/05/29 11:21:24;;;;;;;0.00;0.00;;;;;;;15.09;63.28;101721.28;5091971;28;20100;-82
2022/05/29 11:32:24;;;;;;;0.00;0.00;;;;;;;15.59;62.51;101711.97;5070195;28;20760;-84
2022/05/29 11:35:17;;;;;;;0.10;0.10;;;;;;;15.77;62.01;101706.13;5072762;28;20040;-83
2022/05/29 11:38:12;;;;;;;0.00;0.00;;;;;;;16.12;62.67;101706.06;5070589;28;20094;-83
2022/05/29 11:40:46;;;;;;;0.00;0.00;;;;;;;16.39;62.21;101701.69;5070761;28;20032;-83
2022/05/29 11:43:24;;;;;;;0.00;0.00;;;;;;;16.64;60.47;101696.44;5070774;28;20111;-84
2022/05/29 11:51:46;;;;;;;0.25;0.25;;;;;;;16.78;57.10;101690.63;5071241;28;20868;-84
2022/05/29 11:54:19;;;;;;;0.40;0.40;;;;;;;16.79;57.47;101695.06;5075838;28;20560;-85
2022/05/29 11:56:53;;;;;;;0.00;0.00;;;;;;;16.78;56.38;101687.97;5082604;28;20028;-85
2022/05/29 12:02:42;;;;;;;0.00;0.00;;;;;;;16.80;56.00;101686.13;5116058;27;1331184;-84
2022/05/29 12:07:59;;;;;;;0.00;0.00;;;;;;;16.58;52.23;101679.72;5156479;27;21010;-84
2022/05/29 12:10:31;;;;;;;0.10;0.10;;;;;;;16.66;54.48;101678.53;5156548;27;20088;-83
2022/05/29 12:13:03;;;;;;;0.10;0.10;;;;;;;16.78;53.87;101676.38;5156325;27;20037;-85
2022/05/29 12:15:32;;;;;;;0.00;0.00;;;;;;;16.81;53.08;101677.16;5157022;27;20076;-83
2022/05/29 12:18:05;;;;;;;0.03;0.03;;;;;;;16.95;52.63;101666.03;5156432;27;20079;-84
2022/05/29 12:28:33;;;;;;;0.10;0.10;;;;;;;16.82;50.59;101673.56;5031540;28;20405;-84
2022/05/29 12:29:53;;;;;;;0.10;0.10;;;;;;;16.84;51.23;101667.28;5052459;28;20100;-85
2022/05/29 12:32:23;;;;;;;0.10;0.10;;;;;;;16.87;52.04;101675.22;5010840;28;20172;-85
2022/05/29 12:43:31;;;;;;;0.00;0.00;;;;;;;17.36;50.00;101656.59;5112232;27;20355;-83
2022/05/29 12:48:55;;;;;;;0.10;0.10;;;;;;;17.61;48.83;101662.84;5111787;27;20360;-84
2022/05/29 12:51:40;;;;;;;0.00;0.00;;;;;;;17.82;48.45;101654.06;5111574;28;20051;-85
2022/05/29 12:54:37;;;;;;;0.00;0.00;;;;;;;17.99;50.32;101662.38;5112011;28;20020;-85
2022/05/29 13:00:09;;;;;;;0.00;0.00;;;;;;;17.85;46.45;101652.13;5113875;27;20133;-83
2022/05/29 13:05:51;;;;;;;0.10;0.10;;;;;;;17.61;46.66;101652.13;4999175;27;4622962;-85
2022/05/29 13:11:09;;;;;;;0.10;0.10;;;;;;;17.65;45.24;101646.66;5122237;27;1172634;-85
2022/05/29 13:13:43;;;;;;;0.08;0.08;;;;;;;17.94;46.71;101634.84;5134356;27;20402;-85
2022/05/29 13:16:32;;;;;;;0.00;0.00;;;;;;;18.04;44.75;101641.59;5130078;27;20380;-84
2022/05/29 13:22:04;;;;;;;0.00;0.00;;;;;;;18.52;45.21;101649.63;5122934;27;1180058;-85
2022/05/29 13:29:51;;;;;;;0.00;0.00;;;;;;;18.99;41.67;101632.47;5119718;27;1226464;-85
2022/05/29 13:41:50;;;;;;;36.22;1.20;;;;;;;19.00;42.63;101635.09;5108216;27;20384;-76
2022/05/29 13:44:35;;;;;;;0.10;0.10;;;;;;;19.01;43.32;101636.84;5109035;28;20036;-76
2022/05/29 13:52:45;;;;;;;0.00;0.00;;;;;;;18.84;41.77;101637.53;5110466;27;20133;-79
2022/05/29 14:06:22;;;;;;;0.00;0.00;;;;;;;19.01;41.71;101641.34;5109724;27;20387;-79
2022/05/29 14:09:00;;;;;;;0.00;0.00;;;;;;;19.12;41.62;101639.06;5112512;28;20027;-78
2022/05/29 14:17:20;;;;;;;0.10;0.10;;;;;;;19.04;39.32;101628.66;5068327;28;20820;-76
2022/05/29 14:28:56;;;;;;;2.35;1.10;;;;;;;19.25;41.24;101617.91;5090282;28;20392;-78
2022/05/29 14:31:49;;;;;;;0.20;0.20;;;;;;;19.12;41.07;101616.72;5089292;28;20071;-80
2022/05/29 14:34:35;;;;;;;0.00;0.00;;;;;;;19.06;40.97;101616.00;5090829;28;20032;-77
2022/05/29 14:37:28;;;;;;;0.10;0.10;;;;;;;19.09;39.63;101617.72;5090870;28;20020;-79
2022/05/29 14:40:22;;;;;;;0.10;0.10;;;;;;;19.36;39.24;101620.97;5090459;28;20126;-79
2022/05/29 14:42:51;;;;;;;0.00;0.00;;;;;;;19.30;39.91;101618.59;5090224;28;20509;-80
2022/05/29 14:48:07;;;;;;;0.00;0.00;;;;;;;19.34;39.86;101622.88;5064572;27;20449;-76
2022/05/29 14:50:48;;;;;;;0.68;0.68;;;;;;;19.27;39.08;101626.78;5064869;27;20029;-76
2022/05/29 14:53:22;;;;;;;0.00;0.00;;;;;;;19.46;38.73;101615.22;5065011;28;20028;-77
2022/05/29 14:55:54;;;;;;;0.00;0.00;;;;;;;19.96;39.65;101629.97;5065501;28;20099;-77
2022/05/29 15:03:57;;;;;;;0.10;0.10;;;;;;;20.55;36.65;101622.66;5109906;27;20901;-77
2022/05/29 15:15:26;;;;;;;0.10;0.10;;;;;;;19.68;37.87;101623.19;5111381;27;20379;-78
2022/05/29 15:18:05;;;;;;;0.08;0.08;;;;;;;19.58;38.75;101619.13;5111693;28;20051;-78
2022/05/29 15:26:10;;;;;;;0.08;0.08;;;;;;;19.32;39.12;101614.00;5110890;28;20032;-79
2022/05/29 15:28:42;;;;;;;0.10;0.10;;;;;;;19.26;40.18;101610.72;5111981;28;20024;-78
2022/05/29 15:31:14;;;;;;;0.00;0.00;;;;;;;19.10;40.03;101614.06;5112798;28;20528;-78
2022/05/29 15:34:10;;;;;;;0.00;0.00;;;;;;;19.24;40.60;101613.50;5112896;28;20400;-78
2022/05/29 15:39:51;;;;;;;0.00;0.00;;;;;;;19.24;40.02;101597.38;5111641;27;20388;-78